Time;durP1;ratioP1;P1;durP2;ratioP2;P2;SDS_P1;SDS_P2;PMS_P1;PMS_P2;Temp;Humidity;BMP_temperature;BMP_pressure;BME280_temperature;BME280_humidity;BME280_pressure;Samples;Min_cycle;Max_cycle;Signal;HPM_P1;HPM_P2
2023/06/17 00:00:10;;;;;;;7.75;4.20;;;;;;;;;;5026884;28;20060;-84
2023/06/17 00:02:36;;;;;;;5.05;3.95;;;;;;;;;;5029952;28;20083;-84
2023/06/17 00:05:02;;;;;;;6.65;4.35;;;;;;;;;;5015496;28;20057;-83
2023/06/17 00:07:28;;;;;;;6.20;4.10;;;;;;;;;;5024043;28;20029;-83
2023/06/17 00:09:54;;;;;;;6.18;4.45;;;;;;;;;;5020882;28;20026;-81
2023/06/17 00:12:21;;;;;;;7.15;4.18;;;;;;;;;;5027434;28;20029;-81
2023/06/17 00:14:47;;;;;;;5.10;3.75;;;;;;;;;;5031064;28;20026;-82
2023/06/17 00:17:14;;;;;;;7.60;3.85;;;;;;;;;;5024245;28;20490;-81
2023/06/17 00:19:40;;;;;;;6.10;4.10;;;;;;;;;;5031814;28;20037;-83
2023/06/17 00:22:05;;;;;;;6.57;4.05;;;;;;;;;;5027329;28;20036;-83
2023/06/17 00:24:31;;;;;;;6.38;4.18;;;;;;;;;;5028871;28;20026;-83
2023/06/17 00:26:56;;;;;;;7.80;4.35;;;;;;;;;;5033651;28;20021;-84
2023/06/17 00:29:23;;;;;;;7.07;4.00;;;;;;;;;;5018322;28;20411;-81
2023/06/17 00:31:48;;;;;;;5.78;4.10;;;;;;;;;;5022535;28;20080;-83
2023/06/17 00:34:14;;;;;;;5.72;4.32;;;;;;;;;;5024616;28;20029;-83
2023/06/17 00:36:39;;;;;;;6.53;3.85;;;;;;;;;;5028335;28;20067;-83
2023/06/17 00:39:05;;;;;;;5.82;3.90;;;;;;;;;;5035303;28;20037;-86
2023/06/17 00:41:31;;;;;;;6.65;4.28;;;;;;;;;;5038012;28;20030;-83
2023/06/17 00:43:56;;;;;;;6.25;4.10;;;;;;;;;;5043151;28;20026;-82
2023/06/17 00:46:36;;;;;;;7.40;4.05;;;;;;;;;;5030838;28;20137;-82
2023/06/17 00:49:04;;;;;;;5.60;3.95;;;;;;;;;;5038701;28;20044;-82
2023/06/17 00:51:32;;;;;;;6.63;3.97;;;;;;;;;;5037124;28;20044;-83
2023/06/17 00:54:01;;;;;;;5.05;3.90;;;;;;;;;;5045194;28;20062;-83
2023/06/17 00:56:28;;;;;;;6.65;4.10;;;;;;;;;;5045905;28;20068;-82
2023/06/17 00:58:55;;;;;;;5.80;4.05;;;;;;;;;;5045159;28;20060;-82
2023/06/17 01:01:20;;;;;;;6.15;4.18;;;;;;;;;;5028656;28;20053;-82
2023/06/17 01:03:46;;;;;;;7.78;4.25;;;;;;;;;;5031733;28;20065;-81
2023/06/17 01:06:33;;;;;;;7.15;4.15;;;;;;;;;;5044171;28;20044;-83
2023/06/17 01:09:09;;;;;;;6.88;4.22;;;;;;;;;;5043314;28;20043;-82
2023/06/17 01:11:38;;;;;;;6.63;4.47;;;;;;;;;;5040849;28;20068;-82
2023/06/17 01:14:05;;;;;;;7.05;4.13;;;;;;;;;;5042702;28;20349;-82
2023/06/17 01:16:34;;;;;;;6.45;4.07;;;;;;;;;;5044229;28;20038;-82
2023/06/17 01:19:00;;;;;;;6.00;4.10;;;;;;;;;;5029198;28;20081;-82
2023/06/17 01:21:30;;;;;;;6.32;4.50;;;;;;;;;;5032460;28;20096;-83
2023/06/17 01:23:58;;;;;;;6.18;4.28;;;;;;;;;;5033353;28;20071;-82
2023/06/17 01:26:24;;;;;;;6.00;4.65;;;;;;;;;;5043956;28;20040;-82
2023/06/17 01:28:50;;;;;;;6.82;4.30;;;;;;;;;;5045058;28;20053;-82
2023/06/17 01:31:19;;;;;;;6.10;4.20;;;;;;;;;;5045946;28;20021;-83
2023/06/17 01:33:50;;;;;;;8.10;4.43;;;;;;;;;;5027609;28;20508;-83
2023/06/17 01:36:22;;;;;;;6.68;4.10;;;;;;;;;;5030066;28;20040;-82
2023/06/17 01:38:50;;;;;;;6.78;4.70;;;;;;;;;;5037489;28;20058;-83
2023/06/17 01:41:16;;;;;;;6.63;4.30;;;;;;;;;;5037883;28;20029;-83
2023/06/17 01:43:43;;;;;;;5.78;4.35;;;;;;;;;;5041935;28;20492;-82
2023/06/17 01:46:11;;;;;;;6.38;4.07;;;;;;;;;;5043169;28;20056;-82
2023/06/17 01:48:38;;;;;;;7.53;4.25;;;;;;;;;;5041387;28;20038;-82
2023/06/17 01:51:04;;;;;;;5.55;4.00;;;;;;;;;;5038502;28;20037;-82
2023/06/17 01:53:30;;;;;;;7.28;4.25;;;;;;;;;;5044816;28;20029;-83
2023/06/17 01:55:55;;;;;;;6.57;4.13;;;;;;;;;;5044425;28;20036;-82
2023/06/17 01:58:21;;;;;;;5.72;4.18;;;;;;;;;;5035042;28;20041;-82
2023/06/17 02:00:47;;;;;;;6.78;4.20;;;;;;;;;;5044430;28;20095;-82
2023/06/17 02:03:12;;;;;;;8.73;4.10;;;;;;;;;;5028835;28;20499;-83
2023/06/17 02:05:38;;;;;;;6.32;4.32;;;;;;;;;;5040685;28;20040;-82
2023/06/17 02:08:05;;;;;;;6.90;4.10;;;;;;;;;;5028001;28;20038;-83
2023/06/17 02:10:35;;;;;;;6.05;3.90;;;;;;;;;;5042717;28;20599;-82
2023/06/17 02:13:08;;;;;;;6.18;4.10;;;;;;;;;;5043536;28;20010;-83
2023/06/17 02:15:33;;;;;;;7.05;4.20;;;;;;;;;;5042787;28;20029;-82
2023/06/17 02:17:59;;;;;;;5.90;3.80;;;;;;;;;;5044065;28;20550;-82
2023/06/17 02:20:25;;;;;;;7.90;3.70;;;;;;;;;;5043983;28;20060;-82
2023/06/17 02:22:51;;;;;;;7.13;4.40;;;;;;;;;;5040177;28;20040;-82
2023/06/17 02:25:16;;;;;;;5.63;4.20;;;;;;;;;;5041608;28;20470;-82
2023/06/17 02:27:42;;;;;;;5.82;4.10;;;;;;;;;;5031208;28;20095;-82
2023/06/17 02:30:09;;;;;;;7.32;4.50;;;;;;;;;;5032625;28;20086;-82
2023/06/17 02:32:35;;;;;;;8.20;4.38;;;;;;;;;;5037596;28;20018;-83
2023/06/17 02:35:02;;;;;;;7.88;4.10;;;;;;;;;;5043115;28;20129;-83
2023/06/17 02:37:28;;;;;;;6.32;4.15;;;;;;;;;;5041094;28;20033;-83
2023/06/17 02:39:54;;;;;;;6.88;4.60;;;;;;;;;;5042349;28;20034;-83
2023/06/17 02:42:20;;;;;;;5.93;4.25;;;;;;;;;;5040966;28;20446;-82
2023/06/17 02:44:47;;;;;;;6.90;4.32;;;;;;;;;;5041039;28;20097;-83
2023/06/17 02:47:13;;;;;;;6.55;4.22;;;;;;;;;;5032468;28;20076;-82
2023/06/17 02:49:40;;;;;;;7.20;4.57;;;;;;;;;;5041997;28;20037;-82
2023/06/17 02:52:06;;;;;;;7.13;4.40;;;;;;;;;;5027167;28;20057;-82
2023/06/17 02:54:31;;;;;;;7.38;4.18;;;;;;;;;;5022047;28;20041;-82
2023/06/17 02:56:58;;;;;;;5.85;4.18;;;;;;;;;;5042206;28;20041;-82
2023/06/17 02:59:23;;;;;;;6.03;4.28;;;;;;;;;;5041998;28;20064;-82
2023/06/17 03:01:51;;;;;;;7.15;4.30;;;;;;;;;;5030729;28;20504;-82
2023/06/17 03:04:20;;;;;;;7.47;4.53;;;;;;;;;;5040217;28;20030;-82
2023/06/17 03:06:45;;;;;;;9.32;4.82;;;;;;;;;;5028338;28;20033;-82
2023/06/17 03:09:12;;;;;;;6.10;4.38;;;;;;;;;;5037818;28;20152;-82
2023/06/17 03:11:39;;;;;;;6.15;4.10;;;;;;;;;;5039696;28;20057;-82
2023/06/17 03:14:06;;;;;;;7.28;4.05;;;;;;;;;;5040254;28;20041;-82
2023/06/17 03:16:34;;;;;;;7.18;4.00;;;;;;;;;;5040315;28;20036;-82
2023/06/17 03:19:01;;;;;;;5.50;4.25;;;;;;;;;;5033780;28;21019;-82
2023/06/17 03:21:30;;;;;;;6.88;4.35;;;;;;;;;;5033990;28;20120;-82
2023/06/17 03:23:57;;;;;;;5.32;3.53;;;;;;;;;;5040226;28;20056;-82
2023/06/17 03:26:23;;;;;;;7.60;4.00;;;;;;;;;;5040553;28;20037;-83
2023/06/17 03:28:50;;;;;;;7.53;3.88;;;;;;;;;;5040924;28;20124;-83
2023/06/17 03:31:20;;;;;;;5.97;3.95;;;;;;;;;;5040888;28;20109;-82
2023/06/17 03:33:53;;;;;;;6.57;4.20;;;;;;;;;;5027574;28;20095;-81
2023/06/17 03:36:24;;;;;;;7.57;4.27;;;;;;;;;;5031515;28;20033;-82
2023/06/17 03:38:50;;;;;;;7.15;3.95;;;;;;;;;;5040087;28;20307;-82
2023/06/17 03:41:16;;;;;;;6.38;4.13;;;;;;;;;;5033946;28;20030;-82
2023/06/17 03:43:43;;;;;;;8.95;4.10;;;;;;;;;;5040223;28;20063;-82
2023/06/17 03:46:08;;;;;;;6.68;4.00;;;;;;;;;;5036475;28;20037;-81
2023/06/17 03:48:34;;;;;;;6.13;4.05;;;;;;;;;;5035652;28;20499;-82
2023/06/17 03:51:00;;;;;;;6.45;3.92;;;;;;;;;;5028484;28;20037;-82
2023/06/17 03:53:26;;;;;;;8.52;6.28;;;;;;;;;;5039120;28;20139;-82
2023/06/17 03:55:53;;;;;;;7.05;5.13;;;;;;;;;;5034659;28;20040;-82
2023/06/17 03:58:19;;;;;;;6.38;4.70;;;;;;;;;;5040123;28;20056;-82
2023/06/17 04:00:47;;;;;;;11.73;4.30;;;;;;;;;;5040094;28;20116;-82
2023/06/17 04:03:13;;;;;;;7.50;4.30;;;;;;;;;;5040375;28;20043;-82
2023/06/17 04:05:40;;;;;;;5.47;3.88;;;;;;;;;;5039661;28;20081;-82
2023/06/17 04:08:06;;;;;;;6.15;4.10;;;;;;;;;;5038780;28;20047;-82
2023/06/17 04:10:33;;;;;;;7.65;4.40;;;;;;;;;;5028066;28;20045;-83
2023/06/17 04:12:58;;;;;;;7.05;4.72;;;;;;;;;;5033653;28;20026;-82
2023/06/17 04:15:25;;;;;;;7.10;4.40;;;;;;;;;;5040336;28;20044;-82
2023/06/17 04:17:51;;;;;;;5.38;4.32;;;;;;;;;;5039878;28;20037;-81
2023/06/17 04:20:17;;;;;;;6.32;4.07;;;;;;;;;;5036453;28;20042;-82
2023/06/17 04:22:43;;;;;;;6.97;4.20;;;;;;;;;;5039933;28;20491;-82
2023/06/17 04:25:11;;;;;;;6.65;4.30;;;;;;;;;;5022457;28;20059;-82
2023/06/17 04:27:38;;;;;;;6.70;4.07;;;;;;;;;;5032277;28;20045;-82
2023/06/17 04:30:11;;;;;;;5.95;4.10;;;;;;;;;;5034985;28;20060;-83
2023/06/17 04:32:38;;;;;;;6.00;3.75;;;;;;;;;;5040244;28;20041;-82
2023/06/17 04:35:07;;;;;;;6.68;4.00;;;;;;;;;;5039404;28;20029;-82
2023/06/17 04:37:37;;;;;;;5.35;3.70;;;;;;;;;;5025143;28;20431;-82
2023/06/17 04:40:11;;;;;;;7.72;3.80;;;;;;;;;;5027644;28;20079;-82
2023/06/17 04:42:40;;;;;;;5.72;4.20;;;;;;;;;;5029754;28;20026;-82
2023/06/17 04:45:08;;;;;;;5.40;3.90;;;;;;;;;;5015794;28;20097;-82
2023/06/17 04:47:35;;;;;;;5.25;3.88;;;;;;;;;;5037761;28;20034;-83
2023/06/17 04:50:02;;;;;;;6.25;4.50;;;;;;;;;;5023472;28;20041;-83
2023/06/17 04:52:29;;;;;;;5.45;3.88;;;;;;;;;;5039794;28;20091;-83
2023/06/17 04:54:56;;;;;;;6.80;4.35;;;;;;;;;;5018730;28;20030;-83
2023/06/17 04:57:22;;;;;;;6.25;4.07;;;;;;;;;;5029079;28;20155;-84
2023/06/17 04:59:50;;;;;;;5.03;3.90;;;;;;;;;;5035617;28;20061;-84
2023/06/17 05:02:15;;;;;;;7.63;4.40;;;;;;;;;;5037123;28;20042;-83
2023/06/17 05:04:41;;;;;;;5.32;4.30;;;;;;;;;;5027454;28;20109;-82
2023/06/17 05:07:07;;;;;;;7.30;4.00;;;;;;;;;;5024247;28;20030;-83
2023/06/17 05:09:35;;;;;;;6.20;3.95;;;;;;;;;;5036822;28;20042;-82
2023/06/17 05:12:01;;;;;;;7.10;4.13;;;;;;;;;;5036719;28;20092;-82
2023/06/17 05:14:27;;;;;;;6.15;4.15;;;;;;;;;;5031952;28;20384;-83
2023/06/17 05:16:53;;;;;;;7.40;4.20;;;;;;;;;;5042071;28;20687;-83
2023/06/17 05:19:20;;;;;;;6.32;3.60;;;;;;;;;;5042506;28;20116;-83
2023/06/17 05:21:45;;;;;;;5.70;4.07;;;;;;;;;;5042256;28;20072;-81
2023/06/17 05:24:13;;;;;;;5.20;3.70;;;;;;;;;;5042552;28;20034;-82
2023/06/17 05:26:39;;;;;;;6.78;4.15;;;;;;;;;;5042864;28;20209;-83
2023/06/17 05:29:05;;;;;;;7.53;3.85;;;;;;;;;;5030507;28;20040;-83
2023/06/17 05:31:32;;;;;;;5.60;3.85;;;;;;;;;;5033164;28;20041;-83
2023/06/17 05:33:58;;;;;;;5.57;4.07;;;;;;;;;;5037441;28;20084;-80
2023/06/17 05:36:24;;;;;;;4.80;3.95;;;;;;;;;;5042028;28;20056;-83
2023/06/17 05:38:50;;;;;;;7.82;3.97;;;;;;;;;;5039309;28;20045;-83
2023/06/17 05:41:16;;;;;;;13.15;3.90;;;;;;;;;;5037890;28;20132;-82
2023/06/17 05:43:42;;;;;;;11.90;3.80;;;;;;;;;;5040535;28;20536;-83
2023/06/17 05:46:08;;;;;;;5.80;3.60;;;;;;;;;;5030651;28;20061;-82
2023/06/17 05:48:34;;;;;;;5.72;3.63;;;;;;;;;;5024506;28;20030;-83
2023/06/17 05:51:01;;;;;;;4.93;3.60;;;;;;;;;;5040148;28;20057;-83
2023/06/17 05:53:27;;;;;;;5.80;3.83;;;;;;;;;;5039818;28;20065;-83
2023/06/17 05:55:52;;;;;;;5.32;3.67;;;;;;;;;;5033305;28;20076;-83
2023/06/17 05:58:18;;;;;;;5.75;3.60;;;;;;;;;;5026670;28;20034;-82
2023/06/17 06:00:51;;;;;;;4.90;3.88;;;;;;;;;;5033599;28;20147;-82
2023/06/17 06:03:17;;;;;;;6.57;3.97;;;;;;;;;;5028595;28;20034;-82
2023/06/17 06:05:43;;;;;;;5.50;3.65;;;;;;;;;;5042226;28;20168;-83
2023/06/17 06:08:08;;;;;;;7.40;3.80;;;;;;;;;;5042815;28;20037;-83
2023/06/17 06:10:34;;;;;;;6.32;4.00;;;;;;;;;;5039301;28;20097;-82
2023/06/17 06:13:01;;;;;;;5.97;3.42;;;;;;;;;;5040072;28;20462;-83
2023/06/17 06:15:27;;;;;;;5.15;3.80;;;;;;;;;;5040714;28;20039;-83
2023/06/17 06:17:53;;;;;;;5.60;3.63;;;;;;;;;;5035821;28;20033;-82
2023/06/17 06:20:18;;;;;;;7.43;3.30;;;;;;;;;;5042061;28;20045;-83
2023/06/17 06:22:44;;;;;;;5.85;3.65;;;;;;;;;;5033072;28;20030;-83
2023/06/17 06:25:11;;;;;;;5.15;3.55;;;;;;;;;;5023814;28;20472;-83
2023/06/17 06:27:36;;;;;;;4.43;3.70;;;;;;;;;;5044220;28;20072;-83
2023/06/17 06:30:04;;;;;;;4.63;3.40;;;;;;;;;;5042241;28;20014;-83
2023/06/17 06:32:32;;;;;;;5.00;3.50;;;;;;;;;;5037637;28;20329;-84
2023/06/17 06:34:58;;;;;;;6.55;3.53;;;;;;;;;;5044924;28;20097;-83
2023/06/17 06:37:25;;;;;;;6.43;3.72;;;;;;;;;;5035401;28;20037;-83
2023/06/17 06:39:51;;;;;;;6.05;3.80;;;;;;;;;;5027789;28;20073;-85
2023/06/17 06:42:18;;;;;;;6.72;3.80;;;;;;;;;;5039466;28;20097;-84
2023/06/17 06:44:49;;;;;;;4.40;3.60;;;;;;;;;;5031178;28;20038;-83
2023/06/17 06:47:16;;;;;;;5.03;3.70;;;;;;;;;;5034057;28;20056;-83
2023/06/17 06:49:41;;;;;;;11.75;4.05;;;;;;;;;;5039274;28;20048;-83
2023/06/17 06:52:07;;;;;;;5.05;3.28;;;;;;;;;;5037271;28;20034;-83
2023/06/17 06:54:32;;;;;;;4.30;3.33;;;;;;;;;;5033765;28;20057;-83
2023/06/17 06:56:58;;;;;;;5.22;3.50;;;;;;;;;;5026558;28;20092;-83
2023/06/17 06:59:25;;;;;;;5.25;3.80;;;;;;;;;;5039290;28;20038;-83
2023/06/17 07:01:52;;;;;;;5.70;3.60;;;;;;;;;;5044104;28;20083;-84
2023/06/17 07:04:20;;;;;;;5.18;3.50;;;;;;;;;;5037735;28;20562;-83
2023/06/17 07:06:48;;;;;;;5.43;3.45;;;;;;;;;;5039083;28;20794;-84
2023/06/17 07:09:18;;;;;;;6.25;3.80;;;;;;;;;;5031094;28;20040;-84
2023/06/17 07:11:44;;;;;;;5.93;3.85;;;;;;;;;;5030626;28;20029;-86
2023/06/17 07:14:11;;;;;;;5.78;3.90;;;;;;;;;;5036051;28;20044;-86
2023/06/17 07:16:37;;;;;;;5.55;3.38;;;;;;;;;;5015335;28;20034;-85
2023/06/17 07:19:03;;;;;;;6.15;3.33;;;;;;;;;;5028259;28;20124;-82
2023/06/17 07:21:28;;;;;;;5.57;3.78;;;;;;;;;;5028959;28;20132;-82
2023/06/17 07:23:54;;;;;;;8.18;3.70;;;;;;;;;;5031257;28;20038;-82
2023/06/17 07:26:20;;;;;;;4.88;3.65;;;;;;;;;;5022639;28;20499;-81
2023/06/17 07:28:46;;;;;;;12.63;4.97;;;;;;;;;;5031704;28;20028;-82
2023/06/17 07:31:15;;;;;;;6.50;3.60;;;;;;;;;;5013604;28;20049;-82
2023/06/17 07:33:41;;;;;;;6.57;3.65;;;;;;;;;;5029848;28;20500;-83
2023/06/17 07:36:06;;;;;;;4.20;3.40;;;;;;;;;;5051233;23;20046;-85
2023/06/17 07:38:33;;;;;;;7.30;3.47;;;;;;;;;;5017462;28;20116;-85
2023/06/17 07:41:00;;;;;;;4.18;3.42;;;;;;;;;;5040170;28;20083;-85
2023/06/17 07:43:26;;;;;;;4.93;3.60;;;;;;;;;;5036510;28;20038;-87
2023/06/17 07:45:51;;;;;;;13.55;5.20;;;;;;;;;;5017227;28;20101;-87
2023/06/17 07:48:17;;;;;;;10.95;4.75;;;;;;;;;;5017038;28;20503;-84
2023/06/17 07:50:43;;;;;;;6.65;3.55;;;;;;;;;;5031469;28;20498;-86
2023/06/17 07:53:08;;;;;;;5.10;3.70;;;;;;;;;;5032163;28;20037;-86
2023/06/17 07:55:34;;;;;;;4.88;3.60;;;;;;;;;;5034001;28;20043;-87
2023/06/17 07:57:59;;;;;;;4.72;3.55;;;;;;;;;;5033934;28;20044;-86
2023/06/17 08:00:26;;;;;;;7.07;3.35;;;;;;;;;;5034542;28;20617;-86
2023/06/17 08:02:51;;;;;;;7.13;3.22;;;;;;;;;;5032539;28;20125;-87
2023/06/17 08:05:17;;;;;;;4.40;3.40;;;;;;;;;;5032789;28;20045;-86
2023/06/17 08:07:42;;;;;;;6.30;3.50;;;;;;;;;;5026728;28;20381;-87
2023/06/17 08:10:08;;;;;;;6.38;3.28;;;;;;;;;;5022629;28;20064;-86
2023/06/17 08:12:34;;;;;;;4.72;3.30;;;;;;;;;;5020888;28;20045;-86
2023/06/17 08:14:59;;;;;;;4.80;3.50;;;;;;;;;;5032570;28;20052;-88
2023/06/17 08:17:24;;;;;;;6.25;3.47;;;;;;;;;;5033180;28;20025;-87
2023/06/17 08:19:50;;;;;;;6.32;3.60;;;;;;;;;;5029370;28;20049;-85
2023/06/17 08:22:16;;;;;;;9.65;3.83;;;;;;;;;;5032807;28;20112;-86
2023/06/17 08:24:41;;;;;;;5.78;3.60;;;;;;;;;;5035021;28;20038;-88
2023/06/17 08:27:09;;;;;;;5.82;3.42;;;;;;;;;;5034201;28;20033;-86
2023/06/17 08:29:35;;;;;;;5.70;3.42;;;;;;;;;;5031573;28;20044;-86
2023/06/17 08:32:01;;;;;;;4.78;3.63;;;;;;;;;;5033604;28;20037;-86
2023/06/17 08:34:30;;;;;;;7.13;3.30;;;;;;;;;;5028722;28;20026;-87
2023/06/17 08:36:56;;;;;;;4.82;3.50;;;;;;;;;;5035719;28;20060;-88
2023/06/17 08:39:22;;;;;;;5.10;3.65;;;;;;;;;;5042924;28;20029;-83
2023/06/17 08:41:47;;;;;;;5.15;3.90;;;;;;;;;;5038529;28;20672;-86
2023/06/17 08:44:14;;;;;;;4.82;3.60;;;;;;;;;;5032587;28;20096;-86
2023/06/17 08:46:42;;;;;;;5.28;3.65;;;;;;;;;;5046837;28;20097;-85
2023/06/17 08:49:08;;;;;;;7.22;3.58;;;;;;;;;;5032135;28;20033;-86
2023/06/17 08:51:37;;;;;;;8.50;3.97;;;;;;;;;;5031423;28;20527;-85
2023/06/17 08:54:03;;;;;;;7.22;4.05;;;;;;;;;;5037046;28;20037;-85
2023/06/17 08:56:29;;;;;;;5.68;3.83;;;;;;;;;;5036512;28;20033;-84
2023/06/17 08:58:55;;;;;;;5.00;3.78;;;;;;;;;;5018746;28;20064;-85
2023/06/17 09:01:22;;;;;;;6.18;3.63;;;;;;;;;;5031002;28;20038;-86
2023/06/17 09:03:53;;;;;;;6.25;3.85;;;;;;;;;;5035144;28;20073;-85
2023/06/17 09:06:20;;;;;;;8.38;4.05;;;;;;;;;;5036582;28;20071;-85
2023/06/17 09:08:50;;;;;;;4.60;3.67;;;;;;;;;;5038534;28;20045;-85
2023/06/17 09:11:36;;;;;;;6.55;3.95;;;;;;;;;;5038975;28;20053;-86
2023/06/17 09:14:03;;;;;;;6.28;4.20;;;;;;;;;;5037609;28;20045;-86
2023/06/17 09:16:34;;;;;;;7.25;3.95;;;;;;;;;;5039389;28;20033;-86
2023/06/17 09:19:05;;;;;;;7.57;3.78;;;;;;;;;;5032198;28;20041;-88
2023/06/17 09:21:31;;;;;;;6.85;3.88;;;;;;;;;;5018938;28;20044;-86
2023/06/17 09:23:59;;;;;;;8.63;4.10;;;;;;;;;;5035196;28;20052;-87
2023/06/17 09:26:35;;;;;;;4.10;3.60;;;;;;;;;;5034592;28;20583;-87
2023/06/17 09:29:01;;;;;;;6.25;4.05;;;;;;;;;;5033283;28;20065;-87
2023/06/17 09:31:28;;;;;;;5.93;3.60;;;;;;;;;;5022628;28;20802;-86
2023/06/17 09:33:54;;;;;;;5.97;3.83;;;;;;;;;;5033997;28;20029;-89
2023/06/17 09:36:21;;;;;;;6.57;3.58;;;;;;;;;;5034039;28;20048;-84
2023/06/17 09:39:05;;;;;;;5.95;3.50;;;;;;;;;;6088309;23;21054;-79
2023/06/17 09:41:35;;;;;;;7.50;4.20;;;;;;;;;;5014595;28;20045;-82
2023/06/17 09:44:01;;;;;;;6.55;3.50;;;;;;;;;;5035869;28;20038;-82
2023/06/17 09:46:35;;;;;;;8.77;3.67;;;;;;;;;;5039173;28;20501;-82
2023/06/17 09:49:06;;;;;;;5.65;3.78;;;;;;;;;;4993933;28;20047;-81
2023/06/17 09:51:37;;;;;;;6.63;3.67;;;;;;;;;;4967026;28;20073;-83
2023/06/17 09:54:04;;;;;;;5.93;3.53;;;;;;;;;;4923288;28;20056;-82
2023/06/17 09:56:33;;;;;;;6.85;3.60;;;;;;;;;;4883454;29;20810;-81
2023/06/17 09:58:59;;;;;;;4.45;3.60;;;;;;;;;;4755216;29;20482;-82
2023/06/17 10:01:30;;;;;;;5.93;3.60;;;;;;;;;;4700598;30;20041;-81
2023/06/17 10:03:59;;;;;;;5.43;3.72;;;;;;;;;;4704888;30;20042;-81
2023/06/17 10:06:35;;;;;;;5.57;3.95;;;;;;;;;;4701315;30;20120;-82
2023/06/17 10:09:08;;;;;;;8.73;3.90;;;;;;;;;;4701770;30;20060;-85
2023/06/17 10:11:35;;;;;;;6.10;3.85;;;;;;;;;;4701795;30;20048;-85
2023/06/17 10:14:11;;;;;;;6.43;3.60;;;;;;;;;;4701779;30;20044;-82
2023/06/17 10:16:40;;;;;;;8.57;3.65;;;;;;;;;;4701734;30;20527;-82
2023/06/17 10:19:08;;;;;;;4.95;3.38;;;;;;;;;;4701290;30;20052;-85
2023/06/17 10:21:38;;;;;;;6.03;3.78;;;;;;;;;;4715074;30;20049;-83
2023/06/17 10:24:05;;;;;;;4.55;3.38;;;;;;;;;;4701047;30;20076;-82
2023/06/17 10:26:31;;;;;;;6.40;3.67;;;;;;;;;;4701125;30;20076;-84
2023/06/17 10:29:02;;;;;;;7.07;3.90;;;;;;;;;;4703065;30;20320;-81
2023/06/17 10:31:37;;;;;;;5.70;4.05;;;;;;;;;;4715992;30;20041;-85
2023/06/17 10:34:03;;;;;;;5.68;3.72;;;;;;;;;;4715628;30;20029;-82
2023/06/17 10:36:29;;;;;;;5.25;3.85;;;;;;;;;;4702969;30;20049;-84
2023/06/17 10:38:56;;;;;;;8.43;3.75;;;;;;;;;;4699986;30;20052;-86
2023/06/17 10:41:35;;;;;;;4.57;3.85;;;;;;;;;;4713353;30;20041;-86
2023/06/17 10:44:23;;;;;;;4.72;3.80;;;;;;;;;;4700653;30;20037;-85
2023/06/17 10:46:52;;;;;;;7.85;4.00;;;;;;;;;;4698613;30;20056;-83
2023/06/17 10:49:21;;;;;;;7.28;3.92;;;;;;;;;;4700599;30;20072;-85
2023/06/17 10:51:48;;;;;;;6.00;3.90;;;;;;;;;;4701867;30;20047;-85
2023/06/17 10:54:13;;;;;;;5.43;3.95;;;;;;;;;;4698915;30;20209;-85
2023/06/17 10:56:51;;;;;;;6.53;3.97;;;;;;;;;;4700645;30;20703;-83
2023/06/17 10:59:27;;;;;;;7.28;3.80;;;;;;;;;;4686147;30;1103683;-85
2023/06/17 11:02:00;;;;;;;7.57;3.97;;;;;;;;;;4792325;29;20035;-85
2023/06/17 11:04:28;;;;;;;6.55;3.70;;;;;;;;;;4787004;29;20031;-84
2023/06/17 11:06:53;;;;;;;5.63;3.90;;;;;;;;;;4802528;29;20031;-83
2023/06/17 11:09:26;;;;;;;6.03;3.97;;;;;;;;;;4803028;29;20031;-85
2023/06/17 11:11:56;;;;;;;6.63;4.30;;;;;;;;;;4789693;29;20035;-87
2023/06/17 11:14:22;;;;;;;7.00;4.38;;;;;;;;;;4788445;30;20031;-85
2023/06/17 11:16:51;;;;;;;6.78;4.03;;;;;;;;;;4789326;30;20590;-87
2023/06/17 11:19:16;;;;;;;4.78;3.72;;;;;;;;;;4788957;29;20043;-86
2023/06/17 11:21:42;;;;;;;7.25;3.80;;;;;;;;;;4789928;29;20537;-86
2023/06/17 11:24:09;;;;;;;5.43;4.05;;;;;;;;;;4790221;29;20498;-83
2023/06/17 11:26:37;;;;;;;7.90;4.00;;;;;;;;;;4789839;29;20035;-84
2023/06/17 11:29:04;;;;;;;5.85;4.00;;;;;;;;;;4788811;30;20059;-84
2023/06/17 11:31:36;;;;;;;6.13;3.97;;;;;;;;;;4791997;30;20105;-84
2023/06/17 11:34:02;;;;;;;7.35;4.03;;;;;;;;;;4790646;29;20434;-84
2023/06/17 11:36:28;;;;;;;4.75;3.85;;;;;;;;;;4806269;29;20617;-84
2023/06/17 11:38:55;;;;;;;6.15;3.85;;;;;;;;;;4792382;29;20401;-86
2023/06/17 11:41:22;;;;;;;6.70;4.10;;;;;;;;;;4807208;29;20039;-85
2023/06/17 11:43:49;;;;;;;8.98;3.97;;;;;;;;;;4774892;29;20036;-85
2023/06/17 11:46:22;;;;;;;5.90;3.97;;;;;;;;;;4781670;29;20093;-86
2023/06/17 11:48:48;;;;;;;5.15;4.03;;;;;;;;;;4807038;29;20065;-88
2023/06/17 11:51:15;;;;;;;6.38;3.90;;;;;;;;;;4811529;29;20039;-89
2023/06/17 11:53:44;;;;;;;6.38;4.25;;;;;;;;;;4796324;29;20061;-90
2023/06/17 11:56:10;;;;;;;7.07;4.50;;;;;;;;;;4809967;29;20044;-89
2023/06/17 11:58:39;;;;;;;6.80;4.15;;;;;;;;;;4868120;29;20051;-89
2023/06/17 12:01:06;;;;;;;5.82;4.10;;;;;;;;;;4934059;29;20051;-88
2023/06/17 12:03:32;;;;;;;4.97;3.95;;;;;;;;;;4908348;29;20108;-89
2023/06/17 12:05:57;;;;;;;6.15;4.00;;;;;;;;;;4908873;29;20498;-89
2023/06/17 12:08:24;;;;;;;7.32;4.18;;;;;;;;;;4908671;29;20053;-89
2023/06/17 12:10:50;;;;;;;7.80;3.90;;;;;;;;;;4910140;29;20529;-88
2023/06/17 12:13:16;;;;;;;5.43;4.10;;;;;;;;;;4913617;29;20092;-88
2023/06/17 12:15:42;;;;;;;5.95;3.90;;;;;;;;;;4912096;29;20036;-90
2023/06/17 12:18:12;;;;;;;6.20;3.90;;;;;;;;;;4912140;29;20588;-90
2023/06/17 12:20:47;;;;;;;7.25;4.28;;;;;;;;;;4911647;29;20032;-92
2023/06/17 12:23:14;;;;;;;7.80;4.50;;;;;;;;;;4909258;29;20458;-89
2023/06/17 12:25:39;;;;;;;6.88;4.00;;;;;;;;;;4910910;29;20037;-89
2023/06/17 12:28:05;;;;;;;5.03;4.22;;;;;;;;;;4906528;29;20044;-90
2023/06/17 12:30:33;;;;;;;8.27;4.50;;;;;;;;;;4904662;29;20028;-83
2023/06/17 12:32:59;;;;;;;10.57;4.32;;;;;;;;;;4903117;29;20028;-83
2023/06/17 12:35:25;;;;;;;6.38;4.20;;;;;;;;;;4902293;29;20079;-83
2023/06/17 12:37:52;;;;;;;6.57;4.18;;;;;;;;;;4902485;29;20033;-86
2023/06/17 12:40:18;;;;;;;6.47;4.70;;;;;;;;;;4902077;29;20040;-85
2023/06/17 12:42:44;;;;;;;6.82;4.60;;;;;;;;;;4901890;29;20117;-86
2023/06/17 12:45:10;;;;;;;6.45;4.35;;;;;;;;;;4904061;29;20478;-86
2023/06/17 12:47:36;;;;;;;6.53;4.32;;;;;;;;;;4916905;29;20471;-83
2023/06/17 12:50:03;;;;;;;7.13;4.10;;;;;;;;;;4902779;29;20119;-83
2023/06/17 12:52:28;;;;;;;7.45;4.35;;;;;;;;;;4904403;29;20036;-88
2023/06/17 12:54:58;;;;;;;9.77;4.47;;;;;;;;;;4906155;29;20459;-82
2023/06/17 12:57:28;;;;;;;8.20;4.60;;;;;;;;;;4905109;29;20032;-85
2023/06/17 12:59:54;;;;;;;7.07;3.97;;;;;;;;;;4900024;29;20036;-85
2023/06/17 13:02:20;;;;;;;6.57;4.70;;;;;;;;;;4962762;28;20492;-85
2023/06/17 13:04:46;;;;;;;6.68;4.45;;;;;;;;;;4972234;28;20039;-85
2023/06/17 13:07:11;;;;;;;6.22;4.50;;;;;;;;;;4970791;28;20122;-85
2023/06/17 13:09:37;;;;;;;7.55;4.40;;;;;;;;;;4969356;28;20094;-85
2023/06/17 13:12:03;;;;;;;7.57;4.20;;;;;;;;;;4965976;28;20043;-83
2023/06/17 13:14:29;;;;;;;5.50;4.28;;;;;;;;;;4965559;28;20500;-86
2023/06/17 13:16:55;;;;;;;8.20;4.30;;;;;;;;;;4966408;28;20050;-84
2023/06/17 13:19:21;;;;;;;7.30;4.38;;;;;;;;;;4967973;28;20035;-84
2023/06/17 13:21:46;;;;;;;5.70;4.20;;;;;;;;;;4970764;28;20505;-85
2023/06/17 13:24:13;;;;;;;6.63;4.25;;;;;;;;;;4971927;28;20042;-84
2023/06/17 13:26:38;;;;;;;6.38;4.00;;;;;;;;;;4972370;28;20073;-84
2023/06/17 13:29:04;;;;;;;6.22;4.15;;;;;;;;;;4965603;28;20047;-85
2023/06/17 13:31:31;;;;;;;8.43;4.53;;;;;;;;;;4967171;28;20051;-85
2023/06/17 13:33:57;;;;;;;9.63;4.30;;;;;;;;;;4971930;28;20031;-84
2023/06/17 13:36:23;;;;;;;6.10;4.30;;;;;;;;;;4970344;28;20042;-85
2023/06/17 13:38:49;;;;;;;5.03;4.15;;;;;;;;;;4968724;28;20046;-84
2023/06/17 13:41:14;;;;;;;8.70;4.35;;;;;;;;;;4971088;28;20034;-85
2023/06/17 13:43:40;;;;;;;6.40;4.30;;;;;;;;;;4965338;28;20026;-82
2023/06/17 13:46:06;;;;;;;7.95;4.70;;;;;;;;;;4962200;28;20122;-84
2023/06/17 13:48:31;;;;;;;6.55;4.30;;;;;;;;;;4965238;28;20042;-84
2023/06/17 13:50:57;;;;;;;9.32;4.68;;;;;;;;;;4965077;28;20053;-84
2023/06/17 13:53:23;;;;;;;6.10;4.47;;;;;;;;;;4967782;28;20078;-84
2023/06/17 13:55:49;;;;;;;6.05;4.57;;;;;;;;;;4968938;28;20073;-85
2023/06/17 13:58:14;;;;;;;7.15;4.60;;;;;;;;;;4978113;28;20031;-83
2023/06/17 14:00:40;;;;;;;5.97;4.45;;;;;;;;;;5000933;28;20038;-80
2023/06/17 14:03:06;;;;;;;6.18;4.50;;;;;;;;;;5003119;28;20091;-85
2023/06/17 14:05:32;;;;;;;6.10;4.25;;;;;;;;;;5005276;28;20038;-85
2023/06/17 14:07:58;;;;;;;9.23;4.88;;;;;;;;;;5002198;28;20042;-85
2023/06/17 14:10:24;;;;;;;6.28;4.30;;;;;;;;;;4993583;28;20062;-84
2023/06/17 14:12:53;;;;;;;8.02;4.50;;;;;;;;;;5006824;28;20475;-85
2023/06/17 14:15:19;;;;;;;6.32;4.70;;;;;;;;;;5009769;28;20073;-86
2023/06/17 14:17:44;;;;;;;6.88;4.50;;;;;;;;;;4999214;28;20124;-85
2023/06/17 14:20:11;;;;;;;6.40;4.65;;;;;;;;;;5003544;28;20062;-84
2023/06/17 14:22:39;;;;;;;6.57;4.72;;;;;;;;;;5006923;28;20041;-85
2023/06/17 14:25:05;;;;;;;6.32;4.57;;;;;;;;;;4988705;28;20488;-84
2023/06/17 14:27:41;;;;;;;6.93;4.65;;;;;;;;;;5004825;28;20114;-84
2023/06/17 14:30:11;;;;;;;6.38;4.65;;;;;;;;;;4998293;28;20042;-84
2023/06/17 14:32:38;;;;;;;8.95;4.88;;;;;;;;;;5010572;28;20072;-84
2023/06/17 14:35:04;;;;;;;6.03;4.25;;;;;;;;;;4997692;28;20038;-85
2023/06/17 14:37:30;;;;;;;7.40;4.68;;;;;;;;;;5001697;28;20096;-85
2023/06/17 14:39:55;;;;;;;11.88;4.30;;;;;;;;;;5003002;28;20049;-85
2023/06/17 14:42:21;;;;;;;6.78;4.20;;;;;;;;;;5004067;28;20101;-85